Briefing drone pour Aurillac (LFLW)

Rechercher une autre localisation

Conditions de vol :


Nous sommes le : Samedi 16 octobre 2021
Il est 11:01 UTC (13:01 LT)

Lever de soleil : 05:40 UTC (07:40 LT)
Coucher de soleil : 17:30 UTC (19:30 LT)


Warning: min(): Array must contain at least one element in /homepages/6/d509196549/htdocs/briefdrone/includes/function/metar/metar.php on line 1265

Météo

L'essentiel des conditions de vol

VIGILANCE MÉTÉO FRANCE - Cantal (15)
Pas de vigilances particulieres
CARTES DES FRONTS
METAR de LFLW
LFLW 161030Z AUTO VRB01KT 9999 ////// 14/07 Q1020

Date d'émission: 16/10/2021
Heure d'émission: 10:30 UTC
Vent: Variable 1 KT (2 km/h)
Visibilité horizontale: > 10 km
Température: 14 °C
Point de rosée: 7 °C
Humidité: 63%
Pression (QNH): 1020 hPa
Prévision 24h pour Aurillac
Vent : 83° pour 2 KT (5 km/h)
Temperature Maxi: 6 °C
Temperature Min: 6 °C
Humidité : 76%
Condition : Peu nuageux



Warning: count(): Parameter must be an array or an object that implements Countable in /homepages/6/d509196549/htdocs/droneoxygene/briefing.php on line 743
WEBCAM POUR AURILLAC

Réglementation

Voler en sécurité

CARTES AERONAUTIQUE 1/500.000
CARTES VAC (LFLW)
SUP AIP




Chargement des AIP...
NOTAM (AURILLAC + Terrain à proximité / FIR )




Chargement des NOTAMS...
CONTACT PREFECTURE 15


Avertissement : Les données mises à disposition sont indicatives. Oxygène Drone ne pourra être tenu responsable de dégâts causés aux biens et aux personnes.